createdAt,value
2018-09-12T00:04:47.233Z,35.81
2018-09-12T00:09:50.522Z,35.93
2018-09-12T00:14:53.847Z,36.02
2018-09-12T00:19:57.159Z,36.03
2018-09-12T00:25:00.475Z,35.85
2018-09-12T00:30:03.910Z,35.42
2018-09-12T00:35:07.387Z,35.58
2018-09-12T00:40:10.682Z,35.79
2018-09-12T00:45:14.030Z,35.85
2018-09-12T00:50:17.346Z,35.61
2018-09-12T00:55:20.642Z,35.28
2018-09-12T01:00:24.003Z,35.26
2018-09-12T01:05:27.310Z,35.72
2018-09-12T01:10:30.640Z,35.50
2018-09-12T01:15:33.960Z,35.78
2018-09-12T01:20:37.270Z,35.49
2018-09-12T01:25:40.603Z,35.08
2018-09-12T01:30:44.031Z,35.27
2018-09-12T01:35:47.346Z,35.14
2018-09-12T01:40:50.785Z,35.70
2018-09-12T01:45:54.058Z,35.63
2018-09-12T01:50:57.363Z,35.60
2018-09-12T01:56:00.670Z,35.63
2018-09-12T02:01:03.954Z,35.59
2018-09-12T02:06:07.375Z,35.24
2018-09-12T02:11:10.714Z,35.34
2018-09-12T02:16:13.992Z,35.68
2018-09-12T02:21:17.294Z,35.28
2018-09-12T02:26:20.598Z,35.25
2018-09-12T02:31:23.892Z,35.17
2018-09-12T02:36:29.292Z,35.51
2018-09-12T02:41:32.573Z,35.24
2018-09-12T02:46:35.875Z,35.51
2018-09-12T02:51:39.165Z,35.62
2018-09-12T02:56:42.449Z,35.44
2018-09-12T03:01:45.727Z,35.39
2018-09-12T03:06:49.013Z,35.30
2018-09-12T03:11:52.319Z,35.80
2018-09-12T03:16:55.595Z,35.53
2018-09-12T03:21:58.878Z,35.65
2018-09-12T03:27:02.155Z,35.54
2018-09-12T03:32:05.431Z,35.78
2018-09-12T03:37:08.705Z,35.44
2018-09-12T03:42:11.994Z,35.78
2018-09-12T03:47:15.284Z,35.92
2018-09-12T03:52:18.571Z,37.99
2018-09-12T03:57:21.842Z,38.61
2018-09-12T04:02:25.131Z,38.62
2018-09-12T04:07:28.407Z,38.27
2018-09-12T04:12:31.690Z,38.57
2018-09-12T04:17:36.483Z,38.56
2018-09-12T04:22:39.770Z,38.42
2018-09-12T04:27:43.323Z,38.64
2018-09-12T04:32:46.606Z,38.71
2018-09-12T04:37:50.031Z,38.49
2018-09-12T04:42:53.434Z,38.07
2018-09-12T04:47:56.686Z,38.21
2018-09-12T04:52:59.965Z,38.07
2018-09-12T04:58:03.267Z,38.12
2018-09-12T05:03:06.558Z,37.95
2018-09-12T05:08:09.852Z,38.04
2018-09-12T05:13:13.158Z,38.12
2018-09-12T05:18:16.610Z,37.86
2018-09-12T05:23:19.906Z,37.90
2018-09-12T05:28:23.222Z,37.60
2018-09-12T05:33:26.497Z,37.62
2018-09-12T05:38:29.787Z,38.01
2018-09-12T05:43:33.062Z,38.13
2018-09-12T05:48:36.390Z,37.77
2018-09-12T05:53:39.678Z,37.52
2018-09-12T05:58:42.963Z,38.00
2018-09-12T06:03:46.251Z,38.05
2018-09-12T06:08:49.533Z,37.77
2018-09-12T06:13:52.820Z,37.85
2018-09-12T06:18:56.539Z,38.22
2018-09-12T06:23:59.897Z,38.17
2018-09-12T06:29:03.174Z,38.16
2018-09-12T06:34:06.494Z,37.85
2018-09-12T06:39:11.640Z,38.05
2018-09-12T06:44:14.934Z,38.19
2018-09-12T06:49:18.231Z,37.55
2018-09-12T06:54:21.510Z,37.17
2018-09-12T06:59:24.790Z,36.56
2018-09-12T07:04:28.073Z,36.41
2018-09-12T07:09:31.360Z,36.69
2018-09-12T07:14:34.634Z,36.99
2018-09-12T07:19:37.950Z,36.57
2018-09-12T07:24:41.295Z,36.53
2018-09-12T07:29:44.552Z,37.00
2018-09-12T07:34:47.879Z,36.91
2018-09-12T07:39:51.162Z,37.15
2018-09-12T07:44:54.505Z,37.13
2018-09-12T07:49:57.786Z,37.16
2018-09-12T07:55:01.075Z,37.65
2018-09-12T08:00:05.517Z,37.92
2018-09-12T08:05:08.830Z,37.97
2018-09-12T08:10:12.130Z,37.99
2018-09-12T08:15:15.409Z,37.49
2018-09-12T08:20:18.855Z,37.97
2018-09-12T08:25:22.223Z,37.33
2018-09-12T08:30:25.502Z,37.51
2018-09-12T08:35:28.794Z,38.12
2018-09-12T08:40:32.074Z,38.09
2018-09-12T08:45:35.346Z,37.72
2018-09-12T08:50:38.618Z,37.67
2018-09-12T08:55:41.899Z,38.04
2018-09-12T09:00:45.487Z,38.19
2018-09-12T09:05:48.769Z,38.16
2018-09-12T09:10:52.066Z,37.78
2018-09-12T09:15:55.341Z,37.73
2018-09-12T09:20:58.618Z,37.70
2018-09-12T09:26:01.991Z,38.16
2018-09-12T09:31:05.282Z,38.37
2018-09-12T09:36:08.566Z,38.33
2018-09-12T09:41:11.851Z,38.35
2018-09-12T09:46:15.121Z,38.59
2018-09-12T09:51:18.393Z,38.82
2018-09-12T09:56:21.661Z,38.96
2018-09-12T10:01:30.354Z,39.13
2018-09-12T10:06:39.070Z,38.70
2018-09-12T10:11:42.948Z,39.10
2018-09-12T10:16:46.245Z,39.75
2018-09-12T10:21:49.537Z,39.26
2018-09-12T10:26:52.813Z,39.59
2018-09-12T10:31:56.098Z,39.40
2018-09-12T10:36:59.377Z,39.93
2018-09-12T10:42:02.645Z,39.90
2018-09-12T10:47:06.033Z,39.60
2018-09-12T10:52:09.306Z,39.99
2018-09-12T10:57:12.589Z,40.02
2018-09-12T11:02:15.870Z,40.45
2018-09-12T11:07:19.139Z,40.51
2018-09-12T11:12:22.427Z,40.67
2018-09-12T11:17:25.710Z,40.74
2018-09-12T11:22:28.986Z,41.02
2018-09-12T11:27:32.266Z,41.71
2018-09-12T11:32:35.544Z,41.46
2018-09-12T11:37:38.831Z,41.25
2018-09-12T11:42:42.107Z,41.14
2018-09-12T11:47:45.386Z,41.62
2018-09-12T11:52:48.666Z,41.11
2018-09-12T11:57:51.943Z,41.46
2018-09-12T12:02:55.249Z,41.53
2018-09-12T12:07:58.533Z,41.14
2018-09-12T12:13:01.817Z,41.35
2018-09-12T12:18:05.095Z,41.47
2018-09-12T12:23:08.431Z,41.58
2018-09-12T12:28:11.695Z,41.46
2018-09-12T12:33:14.974Z,41.34
2018-09-12T12:38:18.260Z,40.54
2018-09-12T12:43:21.550Z,41.05
2018-09-12T12:48:24.831Z,40.46
2018-09-12T12:53:28.123Z,41.13
2018-09-12T12:58:31.414Z,40.80
2018-09-12T13:03:34.690Z,41.61
2018-09-12T13:08:37.982Z,41.43
2018-09-12T13:13:41.266Z,41.23
2018-09-12T13:18:44.627Z,41.50
2018-09-12T13:23:48.438Z,41.99
2018-09-12T13:28:51.859Z,41.54
2018-09-12T13:33:55.219Z,42.00
2018-09-12T13:38:58.518Z,42.31
2018-09-12T13:44:01.823Z,42.20
2018-09-12T13:49:06.063Z,42.53
2018-09-12T13:54:09.364Z,42.29
2018-09-12T13:59:12.665Z,42.01
2018-09-12T14:04:16.007Z,42.08
2018-09-12T14:09:19.346Z,41.99
2018-09-12T14:14:23.604Z,42.33
2018-09-12T14:19:26.924Z,42.05
2018-09-12T14:24:30.277Z,42.32
2018-09-12T14:29:33.586Z,41.77
2018-09-12T14:34:36.936Z,42.27
2018-09-12T14:39:40.247Z,41.68
2018-09-12T14:44:43.546Z,41.44
2018-09-12T14:49:47.458Z,41.33
2018-09-12T14:54:50.788Z,41.77
2018-09-12T14:59:54.082Z,41.37
2018-09-12T15:04:57.419Z,41.38
2018-09-12T15:10:00.754Z,41.74
2018-09-12T15:15:04.121Z,41.60
2018-09-12T15:20:08.014Z,41.43
2018-09-12T15:25:11.360Z,41.51
2018-09-12T15:30:14.687Z,41.56
2018-09-12T15:35:18.046Z,42.01
2018-09-12T15:40:21.434Z,42.28
2018-09-12T15:45:24.784Z,41.83
2018-09-12T15:50:28.106Z,41.89
2018-09-12T15:55:31.414Z,41.60
2018-09-12T16:00:34.995Z,42.16
2018-09-12T16:05:38.329Z,42.33
2018-09-12T16:10:41.697Z,42.88
2018-09-12T16:15:45.004Z,42.98
2018-09-12T16:20:48.386Z,43.47
2018-09-12T16:25:51.683Z,42.96
2018-09-12T16:30:55.140Z,43.47
2018-09-12T16:35:58.468Z,42.86
2018-09-12T16:41:01.796Z,43.35
2018-09-12T16:46:05.102Z,43.56
2018-09-12T16:51:08.415Z,43.64
2018-09-12T16:56:11.783Z,43.25
2018-09-12T17:01:15.101Z,43.28
2018-09-12T17:06:18.411Z,43.77
2018-09-12T17:11:21.854Z,43.30
2018-09-12T17:16:25.298Z,43.44
2018-09-12T17:21:29.185Z,43.60
2018-09-12T17:26:32.876Z,43.10
2018-09-12T17:31:36.234Z,43.26
2018-09-12T17:36:39.543Z,43.73
2018-09-12T17:41:43.178Z,43.78
2018-09-12T17:46:46.629Z,43.64
2018-09-12T17:51:50.146Z,43.66
2018-09-12T17:56:53.479Z,43.31
2018-09-12T18:01:56.838Z,43.32
2018-09-12T18:07:01.005Z,43.63
2018-09-12T18:12:04.318Z,43.42
2018-09-12T18:17:07.618Z,43.07
2018-09-12T18:22:11.021Z,43.23
2018-09-12T18:27:14.374Z,43.46
2018-09-12T18:32:17.683Z,43.88
2018-09-12T18:37:21.003Z,43.99
2018-09-12T18:42:24.346Z,44.04
2018-09-12T18:47:27.860Z,43.79
2018-09-12T18:52:31.408Z,43.89
2018-09-12T18:57:34.815Z,43.69
2018-09-12T19:02:38.128Z,43.23
2018-09-12T19:07:41.722Z,43.45
2018-09-12T19:12:45.235Z,43.18
2018-09-12T19:17:48.519Z,43.19
2018-09-12T19:22:51.814Z,43.59
2018-09-12T19:27:55.122Z,43.16
2018-09-12T19:32:58.437Z,43.38
2018-09-12T19:38:01.754Z,43.19
2018-09-12T19:43:05.099Z,42.98
2018-09-12T19:48:08.630Z,42.87
2018-09-12T19:53:11.941Z,42.61
2018-09-12T19:58:15.241Z,42.85
2018-09-12T20:03:18.551Z,42.80
2018-09-12T20:08:21.887Z,42.71
2018-09-12T20:13:25.403Z,42.77
2018-09-12T20:18:28.934Z,42.52
2018-09-12T20:23:32.287Z,42.78
2018-09-12T20:28:39.027Z,42.88
2018-09-12T20:33:42.398Z,42.55
2018-09-12T20:38:45.698Z,42.70
2018-09-12T20:43:49.036Z,42.77
2018-09-12T20:48:52.363Z,42.97
2018-09-12T20:53:55.733Z,42.60
2018-09-12T20:58:59.037Z,42.33
2018-09-12T21:04:02.338Z,42.74
2018-09-12T21:09:09.296Z,42.46
2018-09-12T21:14:12.703Z,42.74
2018-09-12T21:19:16.104Z,42.47
2018-09-12T21:24:19.426Z,42.75
2018-09-12T21:29:22.762Z,42.61
2018-09-12T21:34:26.217Z,42.45
2018-09-12T21:39:29.522Z,42.81
2018-09-12T21:44:32.818Z,42.92
2018-09-12T21:49:36.134Z,42.41
2018-09-12T21:54:39.581Z,42.63
2018-09-12T21:59:42.898Z,42.42
2018-09-12T22:04:46.267Z,42.78
2018-09-12T22:09:49.565Z,42.31
2018-09-12T22:14:52.854Z,42.83
2018-09-12T22:19:56.194Z,42.24
2018-09-12T22:24:59.502Z,41.89
2018-09-12T22:30:02.819Z,41.82
2018-09-12T22:35:06.401Z,42.17
2018-09-12T22:40:09.795Z,41.90
2018-09-12T22:45:13.074Z,41.75
2018-09-12T22:50:16.351Z,41.90
2018-09-12T22:55:19.650Z,41.91
2018-09-12T23:00:23.046Z,41.73
2018-09-12T23:05:26.318Z,41.75
2018-09-12T23:10:29.618Z,41.95
2018-09-12T23:15:32.914Z,42.00
2018-09-12T23:20:36.193Z,41.55
2018-09-12T23:25:39.482Z,41.53
2018-09-12T23:30:42.762Z,41.47
2018-09-12T23:35:46.062Z,41.47
2018-09-12T23:40:49.338Z,41.49
2018-09-12T23:45:52.710Z,41.71
2018-09-12T23:50:55.937Z,41.42
2018-09-12T23:55:59.222Z,41.47
